createdAt,value
2023-02-28T00:01:22.190Z,3.00
2023-02-28T00:03:50.525Z,2.70
2023-02-28T00:06:19.032Z,2.70
2023-02-28T00:08:47.340Z,2.80
2023-02-28T00:11:15.592Z,3.20
2023-02-28T00:13:47.684Z,2.70
2023-02-28T00:16:17.611Z,2.50
2023-02-28T00:18:45.811Z,2.60
2023-02-28T00:21:14.111Z,2.50
2023-02-28T00:23:42.900Z,2.80
2023-02-28T00:26:11.153Z,3.00
2023-02-28T00:28:39.893Z,2.60
2023-02-28T00:31:09.763Z,2.50
2023-02-28T00:33:38.263Z,2.70
2023-02-28T00:36:07.380Z,2.40
2023-02-28T00:38:39.870Z,2.90
2023-02-28T00:41:08.437Z,2.50
2023-02-28T00:43:37.190Z,2.50
2023-02-28T00:46:05.773Z,2.20
2023-02-28T00:48:34.563Z,2.60
2023-02-28T00:51:02.587Z,2.80
2023-02-28T00:53:33.805Z,2.40
2023-02-28T00:56:02.910Z,2.80
2023-02-28T00:58:35.671Z,2.70
2023-02-28T01:01:04.031Z,2.40
2023-02-28T01:03:32.760Z,2.90
2023-02-28T01:06:01.086Z,2.70
2023-02-28T01:08:29.911Z,2.50
2023-02-28T01:10:58.368Z,2.50
2023-02-28T01:13:26.694Z,2.50
2023-02-28T01:15:56.456Z,2.90
2023-02-28T01:18:25.790Z,2.60
2023-02-28T01:20:54.681Z,2.60
2023-02-28T01:23:24.548Z,2.80
2023-02-28T01:25:53.409Z,2.90
2023-02-28T01:28:21.748Z,2.80
2023-02-28T01:30:51.100Z,2.70
2023-02-28T01:33:19.833Z,3.00
2023-02-28T01:35:58.492Z,2.80
2023-02-28T01:38:27.070Z,2.40
2023-02-28T01:40:56.243Z,2.40
2023-02-28T01:43:27.445Z,2.50
2023-02-28T01:45:57.407Z,2.50
2023-02-28T01:48:28.807Z,2.90
2023-02-28T01:50:57.854Z,2.50
2023-02-28T01:53:27.721Z,2.50
2023-02-28T01:55:57.713Z,2.70
2023-02-28T01:58:25.891Z,2.40
2023-02-28T02:00:55.048Z,2.60
2023-02-28T02:03:23.266Z,2.40
2023-02-28T02:05:51.446Z,2.70
2023-02-28T02:08:25.993Z,2.20
2023-02-28T02:10:58.495Z,2.60
2023-02-28T02:13:31.107Z,2.40
2023-02-28T02:16:06.238Z,2.20
2023-02-28T02:18:34.930Z,2.10
2023-02-28T02:21:15.468Z,1.90
2023-02-28T02:23:47.922Z,2.40
2023-02-28T02:26:21.064Z,2.20
2023-02-28T02:29:08.060Z,2.30
2023-02-28T02:31:36.687Z,2.40
2023-02-28T02:34:28.344Z,2.30
2023-02-28T02:37:11.858Z,2.00
2023-02-28T02:39:49.872Z,2.00
2023-02-28T02:42:22.543Z,2.10
2023-02-28T02:44:51.891Z,2.40
2023-02-28T02:47:20.256Z,2.30
2023-02-28T02:49:50.456Z,2.30
2023-02-28T02:52:19.502Z,2.00
2023-02-28T02:54:47.938Z,2.30
2023-02-28T02:57:20.562Z,2.40
2023-02-28T02:59:50.505Z,2.20
2023-02-28T03:02:18.990Z,2.20
2023-02-28T03:04:48.062Z,2.50
2023-02-28T03:07:20.493Z,1.80
2023-02-28T03:09:55.201Z,2.10
2023-02-28T03:12:25.007Z,2.10
2023-02-28T03:15:09.286Z,2.30
2023-02-28T03:17:51.057Z,2.10
2023-02-28T03:20:29.347Z,2.10
2023-02-28T03:23:15.084Z,1.90
2023-02-28T03:25:49.893Z,1.90
2023-02-28T03:28:41.545Z,2.30
2023-02-28T03:31:10.334Z,1.80
2023-02-28T03:33:58.327Z,2.10
2023-02-28T03:38:56.831Z,2.20
2023-02-28T03:41:26.188Z,2.40
2023-02-28T03:43:56.159Z,2.20
2023-02-28T03:46:26.505Z,1.80
2023-02-28T03:49:00.107Z,2.10
2023-02-28T03:51:28.558Z,1.90
2023-02-28T03:54:01.152Z,2.30
2023-02-28T03:56:32.963Z,2.30
2023-02-28T03:59:06.765Z,2.10
2023-02-28T04:01:39.552Z,2.00
2023-02-28T04:04:08.263Z,2.20
2023-02-28T04:06:37.726Z,2.40
2023-02-28T04:09:06.256Z,2.10
2023-02-28T04:11:38.655Z,2.10
2023-02-28T04:14:07.317Z,2.00
2023-02-28T04:16:36.452Z,1.50
2023-02-28T04:19:06.485Z,1.90
2023-02-28T04:21:45.286Z,2.40
2023-02-28T04:24:17.337Z,2.30
2023-02-28T04:26:47.798Z,2.30
2023-02-28T04:29:20.290Z,2.20
2023-02-28T04:31:48.741Z,2.20
2023-02-28T04:34:17.610Z,1.90
2023-02-28T04:36:47.103Z,1.70
2023-02-28T04:39:19.620Z,2.00
2023-02-28T04:41:48.055Z,2.00
2023-02-28T04:44:16.215Z,1.80
2023-02-28T04:46:44.518Z,1.80
2023-02-28T04:49:12.693Z,2.00
2023-02-28T04:51:44.267Z,1.90
2023-02-28T04:54:12.540Z,1.70
2023-02-28T04:56:46.750Z,1.80
2023-02-28T04:59:18.192Z,2.20
2023-02-28T05:01:46.872Z,1.90
2023-02-28T05:04:15.147Z,2.30
2023-02-28T05:08:21.199Z,2.30
2023-02-28T05:10:49.378Z,2.30
2023-02-28T05:13:18.399Z,2.60
2023-02-28T05:15:47.099Z,3.20
2023-02-28T05:18:17.862Z,2.80
2023-02-28T05:20:46.254Z,2.90
2023-02-28T05:23:14.610Z,2.60
2023-02-28T05:25:43.095Z,3.00
2023-02-28T05:28:11.344Z,2.40
2023-02-28T05:30:40.775Z,2.60
2023-02-28T05:33:11.304Z,2.70
2023-02-28T05:35:43.864Z,2.30
2023-02-28T05:38:12.192Z,2.30
2023-02-28T05:40:41.465Z,2.30
2023-02-28T05:43:11.186Z,2.30
2023-02-28T05:45:39.383Z,2.50
2023-02-28T05:48:07.740Z,2.10
2023-02-28T05:50:36.373Z,2.10
2023-02-28T05:53:04.548Z,2.60
2023-02-28T05:55:33.008Z,2.70
2023-02-28T05:58:03.309Z,2.50
2023-02-28T06:00:31.640Z,2.60
2023-02-28T06:03:03.283Z,2.40
2023-02-28T06:05:31.988Z,2.20
2023-02-28T06:08:00.574Z,2.60
2023-02-28T06:10:29.726Z,2.50
2023-02-28T06:13:01.032Z,2.20
2023-02-28T06:15:29.787Z,2.50
2023-02-28T06:17:58.581Z,2.70
2023-02-28T06:20:30.272Z,2.30
2023-02-28T06:23:02.065Z,2.70
2023-02-28T06:25:30.404Z,2.90
2023-02-28T06:28:00.424Z,2.70
2023-02-28T06:30:31.211Z,2.70
2023-02-28T06:32:59.836Z,2.60
2023-02-28T06:35:28.298Z,2.70
2023-02-28T06:37:56.688Z,2.60
2023-02-28T06:40:24.840Z,2.60
2023-02-28T06:42:52.940Z,2.70
2023-02-28T06:45:21.244Z,2.40
2023-02-28T06:47:53.292Z,2.70
2023-02-28T06:50:21.716Z,2.70
2023-02-28T06:52:55.079Z,3.00
2023-02-28T06:55:26.288Z,2.50
2023-02-28T06:57:56.031Z,2.80
2023-02-28T07:00:24.656Z,3.10
2023-02-28T07:02:52.969Z,3.00
2023-02-28T07:05:21.176Z,3.20
2023-02-28T07:07:50.005Z,2.60
2023-02-28T07:10:20.354Z,3.50
2023-02-28T07:12:50.992Z,3.20
2023-02-28T07:15:19.294Z,3.10
2023-02-28T07:17:47.476Z,3.00
2023-02-28T07:20:15.952Z,2.80
2023-02-28T07:22:44.590Z,2.90
2023-02-28T07:25:12.998Z,2.70
2023-02-28T07:27:42.561Z,2.80
2023-02-28T07:30:11.243Z,2.50
2023-02-28T07:32:39.829Z,2.70
2023-02-28T07:35:08.549Z,2.80
2023-02-28T07:37:37.857Z,3.20
2023-02-28T07:40:08.691Z,2.80
2023-02-28T07:42:37.690Z,3.10
2023-02-28T07:45:06.510Z,3.30
2023-02-28T07:47:34.653Z,3.30
2023-02-28T07:50:03.118Z,3.30
2023-02-28T07:52:31.623Z,3.10
2023-02-28T07:54:59.927Z,3.10
2023-02-28T07:57:28.207Z,2.50
2023-02-28T07:59:57.292Z,3.00
2023-02-28T08:02:25.613Z,3.10
2023-02-28T08:04:58.400Z,3.00
2023-02-28T08:07:47.132Z,3.40
2023-02-28T08:10:17.039Z,2.60
2023-02-28T08:12:46.225Z,3.10
2023-02-28T08:15:14.320Z,3.00
2023-02-28T08:17:43.720Z,3.20
2023-02-28T08:20:12.329Z,2.30
2023-02-28T08:22:40.807Z,2.90
2023-02-28T08:25:09.611Z,2.90
2023-02-28T08:27:38.013Z,2.40
2023-02-28T08:30:06.982Z,2.90
2023-02-28T08:32:35.591Z,2.20
2023-02-28T08:35:04.802Z,2.70
2023-02-28T08:37:33.066Z,2.40
2023-02-28T08:40:02.145Z,2.40
2023-02-28T08:42:30.687Z,2.70
2023-02-28T08:45:00.731Z,3.20
2023-02-28T08:47:30.358Z,2.60
2023-02-28T08:49:59.250Z,2.40
2023-02-28T08:52:27.373Z,2.40
2023-02-28T08:54:55.837Z,2.50
2023-02-28T08:57:24.073Z,2.80
2023-02-28T08:59:52.718Z,2.80
2023-02-28T09:02:25.711Z,2.70
2023-02-28T09:04:53.966Z,2.80
2023-02-28T09:07:22.305Z,2.80
2023-02-28T09:09:56.134Z,2.70
2023-02-28T09:12:27.446Z,3.10
2023-02-28T09:14:58.081Z,3.20
2023-02-28T09:17:30.423Z,3.20
2023-02-28T09:19:59.818Z,2.90
2023-02-28T09:22:29.351Z,2.90
2023-02-28T09:24:58.258Z,3.00
2023-02-28T09:27:27.313Z,2.90
2023-02-28T09:29:58.193Z,2.70
2023-02-28T09:32:26.576Z,2.80
2023-02-28T09:34:56.066Z,2.70
2023-02-28T09:37:30.425Z,3.00
2023-02-28T09:39:58.995Z,3.00
2023-02-28T09:42:30.717Z,2.90
2023-02-28T09:44:59.345Z,2.80
2023-02-28T09:47:42.858Z,3.20
2023-02-28T09:50:14.218Z,3.40
2023-02-28T09:52:43.005Z,3.00
2023-02-28T09:55:24.001Z,2.80
2023-02-28T09:57:52.193Z,3.00
2023-02-28T10:00:20.728Z,3.60
2023-02-28T10:02:52.103Z,3.00
2023-02-28T10:05:21.558Z,3.20
2023-02-28T10:08:09.345Z,3.20
2023-02-28T10:10:56.623Z,3.20
2023-02-28T10:16:16.297Z,2.60
2023-02-28T10:18:46.167Z,3.50
2023-02-28T10:21:50.004Z,3.50
2023-02-28T10:24:30.472Z,3.30
2023-02-28T10:27:01.027Z,3.30
2023-02-28T10:29:31.072Z,3.20
2023-02-28T10:32:00.369Z,3.60
2023-02-28T10:34:28.987Z,2.80
2023-02-28T10:36:57.549Z,3.00
2023-02-28T10:39:40.453Z,2.60
2023-02-28T10:42:27.123Z,2.50
2023-02-28T10:45:11.155Z,2.80
2023-02-28T10:47:56.740Z,2.70
2023-02-28T10:50:28.711Z,2.80
2023-02-28T10:52:57.320Z,3.10
2023-02-28T10:55:26.384Z,4.00
2023-02-28T10:57:55.074Z,4.00
2023-02-28T11:00:24.815Z,3.40
2023-02-28T11:02:53.168Z,3.20
2023-02-28T11:05:34.326Z,3.60
2023-02-28T11:08:17.148Z,3.30
2023-02-28T11:10:49.005Z,3.80
2023-02-28T11:13:26.427Z,3.70
2023-02-28T11:15:55.427Z,3.40
2023-02-28T11:18:44.807Z,3.50
2023-02-28T11:21:18.185Z,4.00
2023-02-28T11:23:46.770Z,3.20
2023-02-28T11:26:15.153Z,3.70
2023-02-28T11:28:43.383Z,3.90
2023-02-28T11:31:15.028Z,3.30
2023-02-28T11:33:46.054Z,3.40
2023-02-28T11:36:22.644Z,3.20
2023-02-28T11:38:51.677Z,3.30
2023-02-28T11:41:24.972Z,3.60
2023-02-28T11:44:12.447Z,3.20
2023-02-28T11:46:42.460Z,3.90
2023-02-28T11:49:15.925Z,3.30
2023-02-28T11:51:44.170Z,3.50
2023-02-28T11:54:28.237Z,3.70
2023-02-28T11:56:58.292Z,4.60
2023-02-28T11:59:35.714Z,3.80
2023-02-28T12:02:04.329Z,3.80
2023-02-28T12:04:41.669Z,4.30
2023-02-28T12:07:10.829Z,4.00
2023-02-28T12:10:06.892Z,4.80
2023-02-28T12:12:35.260Z,4.20
2023-02-28T12:15:04.125Z,4.60
2023-02-28T12:17:48.250Z,4.30
2023-02-28T12:20:25.904Z,4.70
2023-02-28T12:25:25.222Z,4.20
2023-02-28T12:27:54.419Z,4.10
2023-02-28T12:30:30.535Z,4.30
2023-02-28T12:33:10.160Z,3.70
2023-02-28T12:35:40.157Z,3.40
2023-02-28T12:38:13.774Z,3.90
2023-02-28T12:40:43.126Z,3.80
2023-02-28T12:43:11.764Z,3.70
2023-02-28T12:45:42.296Z,3.80
2023-02-28T12:48:12.751Z,3.50
2023-02-28T12:50:41.771Z,3.70
2023-02-28T12:53:11.124Z,3.90
2023-02-28T12:55:43.350Z,3.50
2023-02-28T12:58:38.222Z,3.30
2023-02-28T13:01:12.477Z,3.80
2023-02-28T13:04:07.905Z,4.30
2023-02-28T13:06:57.179Z,4.40
2023-02-28T13:09:25.898Z,3.50
2023-02-28T13:11:54.733Z,3.70
2023-02-28T13:14:27.241Z,3.80
2023-02-28T13:16:59.558Z,3.50
2023-02-28T13:19:29.451Z,3.50
2023-02-28T13:21:57.998Z,3.70
2023-02-28T13:24:35.608Z,3.50
2023-02-28T13:27:04.138Z,3.70
2023-02-28T13:29:34.744Z,3.30
2023-02-28T13:32:03.445Z,3.40
2023-02-28T13:34:31.664Z,3.60
2023-02-28T13:37:18.687Z,3.40
2023-02-28T13:39:50.736Z,3.50
2023-02-28T13:42:26.107Z,4.20
2023-02-28T13:45:04.523Z,4.30
2023-02-28T13:50:20.613Z,3.70
2023-02-28T13:52:52.322Z,3.50
2023-02-28T13:55:26.602Z,4.60
2023-02-28T13:57:54.892Z,4.00
2023-02-28T14:00:42.603Z,3.90
2023-02-28T14:03:29.773Z,4.00
2023-02-28T14:06:10.137Z,4.40
2023-02-28T14:08:38.435Z,3.90
2023-02-28T14:11:07.662Z,4.30
2023-02-28T14:13:47.976Z,4.00
2023-02-28T14:16:27.938Z,3.50
2023-02-28T14:19:02.834Z,3.60
2023-02-28T14:21:35.301Z,3.60
2023-02-28T14:24:20.998Z,4.20
2023-02-28T14:26:49.430Z,3.70
2023-02-28T14:29:29.465Z,3.80
2023-02-28T14:32:17.178Z,3.80
2023-02-28T14:34:48.494Z,4.00
2023-02-28T14:37:18.003Z,4.40
2023-02-28T14:39:46.362Z,4.30
2023-02-28T14:42:28.793Z,4.00
2023-02-28T14:44:57.711Z,3.70
2023-02-28T14:47:28.435Z,3.40
2023-02-28T14:49:56.750Z,3.90
2023-02-28T14:52:25.811Z,4.00
2023-02-28T14:55:01.578Z,3.70
2023-02-28T14:57:31.443Z,3.80
2023-02-28T15:00:05.092Z,3.70
2023-02-28T15:02:35.437Z,3.80
2023-02-28T15:05:18.875Z,3.90
2023-02-28T15:07:50.618Z,4.30
2023-02-28T15:10:19.420Z,4.00
2023-02-28T15:12:50.938Z,4.10
2023-02-28T15:15:19.471Z,3.30
2023-02-28T15:17:51.872Z,3.80
2023-02-28T15:20:20.174Z,4.60
2023-02-28T15:22:49.248Z,4.30
2023-02-28T15:25:20.216Z,4.30
2023-02-28T15:27:50.070Z,4.40
2023-02-28T15:30:21.962Z,3.60
2023-02-28T15:33:06.955Z,4.30
2023-02-28T15:35:35.481Z,4.10
2023-02-28T15:38:16.598Z,3.40
2023-02-28T15:40:45.804Z,4.00
2023-02-28T15:43:16.747Z,3.80
2023-02-28T15:45:51.367Z,4.50
2023-02-28T15:48:26.930Z,4.60
2023-02-28T15:51:16.044Z,4.40
2023-02-28T15:53:54.557Z,4.30
2023-02-28T15:56:27.323Z,4.20
2023-02-28T15:59:03.146Z,5.30
2023-02-28T16:01:36.481Z,5.20
2023-02-28T16:04:13.402Z,5.40
2023-02-28T16:06:45.648Z,5.60
2023-02-28T16:09:17.101Z,5.60
2023-02-28T16:11:50.579Z,6.10
2023-02-28T16:14:24.118Z,6.00
2023-02-28T16:16:56.050Z,6.40
2023-02-28T16:19:25.008Z,6.10
2023-02-28T16:21:55.832Z,6.00
2023-02-28T16:24:24.316Z,5.70
2023-02-28T16:26:53.348Z,5.40
2023-02-28T16:29:26.476Z,6.00
2023-02-28T16:31:55.434Z,5.90
2023-02-28T16:34:23.701Z,6.00
2023-02-28T16:36:52.772Z,6.20
2023-02-28T16:39:21.956Z,6.60
2023-02-28T16:41:50.409Z,6.20
2023-02-28T16:44:31.457Z,6.50
2023-02-28T16:47:02.545Z,6.60
2023-02-28T16:49:30.856Z,6.90
2023-02-28T16:51:59.375Z,7.60
2023-02-28T16:54:28.062Z,8.50
2023-02-28T16:56:56.790Z,8.30
2023-02-28T16:59:25.533Z,8.50
2023-02-28T17:01:55.476Z,9.70
2023-02-28T17:04:23.764Z,9.80
2023-02-28T17:06:52.999Z,9.50
2023-02-28T17:09:26.233Z,8.10
2023-02-28T17:12:00.471Z,7.60
2023-02-28T17:14:28.592Z,7.00
2023-02-28T17:16:57.268Z,6.90
2023-02-28T17:19:25.966Z,6.10
2023-02-28T17:24:56.242Z,6.80
2023-02-28T17:27:23.394Z,6.10
2023-02-28T17:29:50.264Z,6.20
2023-02-28T17:32:18.859Z,6.50
2023-02-28T17:34:46.312Z,6.70
2023-02-28T17:37:13.882Z,7.50
2023-02-28T17:39:41.183Z,6.90
2023-02-28T17:42:09.074Z,6.80
2023-02-28T17:44:38.199Z,6.90
2023-02-28T17:47:05.412Z,7.70
2023-02-28T17:49:33.703Z,7.40
2023-02-28T17:54:27.786Z,6.90
2023-02-28T17:56:54.754Z,6.40
2023-02-28T17:59:21.728Z,7.60
2023-02-28T18:01:48.712Z,6.80
2023-02-28T18:04:15.854Z,6.70
2023-02-28T18:06:50.203Z,7.30
2023-02-28T18:09:18.785Z,8.00
2023-02-28T18:11:48.523Z,7.30
2023-02-28T18:14:15.860Z,6.50
2023-02-28T18:16:43.011Z,6.20
2023-02-28T18:19:15.311Z,5.70
2023-02-28T18:21:47.200Z,5.30
2023-02-28T18:24:17.340Z,4.70
2023-02-28T18:26:44.544Z,5.00
2023-02-28T18:29:24.535Z,6.20
2023-02-28T18:31:52.072Z,5.20
2023-02-28T18:36:48.309Z,5.10
2023-02-28T18:39:16.232Z,5.70
2023-02-28T18:41:43.173Z,5.80
2023-02-28T18:44:19.008Z,5.40
2023-02-28T18:46:50.468Z,6.20
2023-02-28T18:49:17.797Z,6.10
2023-02-28T18:51:45.941Z,6.30
2023-02-28T18:54:13.500Z,6.30
2023-02-28T18:59:07.447Z,6.00
2023-02-28T19:01:34.510Z,6.20
2023-02-28T19:04:01.817Z,6.00
2023-02-28T19:06:33.391Z,6.60
2023-02-28T19:09:01.303Z,6.90
2023-02-28T19:11:28.744Z,7.10
2023-02-28T19:13:58.516Z,6.40
2023-02-28T19:16:25.411Z,6.60
2023-02-28T19:18:52.340Z,6.50
2023-02-28T19:21:21.292Z,6.10
2023-02-28T19:23:48.541Z,6.10
2023-02-28T19:26:17.636Z,6.10
2023-02-28T19:28:45.100Z,6.10
2023-02-28T19:31:30.393Z,5.50
2023-02-28T19:33:59.108Z,5.20
2023-02-28T19:36:27.023Z,5.40
2023-02-28T19:41:20.621Z,6.20
2023-02-28T19:43:47.448Z,5.30
2023-02-28T19:46:16.251Z,5.50
2023-02-28T19:48:44.360Z,5.60
2023-02-28T19:51:12.901Z,4.90
2023-02-28T19:53:40.887Z,5.20
2023-02-28T19:56:08.811Z,5.10
2023-02-28T19:58:36.378Z,4.90
2023-02-28T20:01:13.170Z,4.90
2023-02-28T20:03:40.558Z,5.40
2023-02-28T20:06:09.477Z,4.80
2023-02-28T20:08:37.730Z,5.10
2023-02-28T20:11:10.837Z,4.70
2023-02-28T20:13:38.129Z,5.30
2023-02-28T20:16:08.480Z,6.00
2023-02-28T20:18:36.379Z,5.50
2023-02-28T20:21:03.434Z,5.90
2023-02-28T20:23:32.088Z,5.80
2023-02-28T20:25:59.908Z,5.80
2023-02-28T20:30:53.438Z,5.60
2023-02-28T20:33:20.698Z,5.60
2023-02-28T20:35:49.129Z,4.20
2023-02-28T20:38:16.317Z,6.00
2023-02-28T20:40:43.318Z,3.80
2023-02-28T20:43:10.179Z,6.00
2023-02-28T20:48:05.248Z,5.40
2023-02-28T20:50:32.097Z,5.40
2023-02-28T20:52:59.017Z,5.40
2023-02-28T20:55:26.069Z,5.80
2023-02-28T20:57:54.528Z,6.00
2023-02-28T21:00:22.114Z,5.90
2023-02-28T21:05:17.338Z,4.70
2023-02-28T21:07:44.337Z,5.00
2023-02-28T21:10:11.911Z,5.20
2023-02-28T21:12:39.129Z,4.80
2023-02-28T21:15:06.692Z,6.00
2023-02-28T21:17:33.613Z,5.50
2023-02-28T21:20:00.811Z,5.50
2023-02-28T21:22:29.355Z,5.20
2023-02-28T21:24:56.248Z,5.80
2023-02-28T21:27:23.170Z,4.40
2023-02-28T21:29:50.196Z,5.50
2023-02-28T21:32:17.377Z,3.90
2023-02-28T21:34:48.006Z,6.10
2023-02-28T21:39:42.592Z,5.80
2023-02-28T21:42:09.462Z,6.50
2023-02-28T21:44:36.256Z,7.50
2023-02-28T21:47:03.523Z,6.90
2023-02-28T21:49:31.282Z,7.90
2023-02-28T21:51:59.711Z,7.00
2023-02-28T21:54:26.834Z,7.40
2023-02-28T21:56:55.505Z,7.00
2023-02-28T21:59:23.378Z,8.00
2023-02-28T22:01:51.076Z,7.20
2023-02-28T22:04:21.636Z,6.50
2023-02-28T22:06:51.915Z,5.90
2023-02-28T22:09:18.969Z,5.70
2023-02-28T22:11:46.277Z,6.50
2023-02-28T22:14:14.654Z,6.40
2023-02-28T22:16:54.319Z,6.30
2023-02-28T22:19:22.346Z,5.70
2023-02-28T22:21:49.806Z,6.10
2023-02-28T22:24:20.057Z,6.40
2023-02-28T22:26:48.740Z,6.70
2023-02-28T22:29:15.505Z,6.30
2023-02-28T22:31:42.399Z,6.70
2023-02-28T22:34:11.677Z,6.70
2023-02-28T22:36:40.830Z,6.40
2023-02-28T22:39:08.158Z,7.30
2023-02-28T22:41:35.234Z,6.80
2023-02-28T22:44:04.895Z,6.80
2023-02-28T22:46:33.479Z,7.40
2023-02-28T22:49:02.349Z,6.60
2023-02-28T22:51:29.465Z,6.70
2023-02-28T22:53:57.572Z,6.50
2023-02-28T22:56:25.587Z,6.00
2023-02-28T22:58:53.927Z,6.20
2023-02-28T23:01:21.874Z,6.00
2023-02-28T23:03:49.059Z,6.50
2023-02-28T23:06:26.424Z,5.50
2023-02-28T23:08:56.510Z,5.10
2023-02-28T23:11:31.942Z,6.40
2023-02-28T23:13:59.304Z,6.20
2023-02-28T23:16:36.232Z,6.40
2023-02-28T23:19:06.863Z,5.40
2023-02-28T23:21:34.483Z,6.10
2023-02-28T23:24:02.645Z,5.90
2023-02-28T23:26:30.797Z,6.30
2023-02-28T23:28:58.492Z,5.50
2023-02-28T23:31:26.136Z,6.00
2023-02-28T23:33:55.988Z,5.50
2023-02-28T23:36:23.855Z,4.90
2023-02-28T23:38:51.245Z,5.60
2023-02-28T23:41:18.954Z,4.90
2023-02-28T23:43:46.085Z,5.50
2023-02-28T23:46:13.501Z,5.10
2023-02-28T23:48:40.973Z,5.20
2023-02-28T23:51:14.198Z,5.70
2023-02-28T23:53:43.326Z,5.60
2023-02-28T23:56:14.092Z,5.50
2023-02-28T23:58:42.435Z,6.40
